CDT,Max TemperatureF,Mean TemperatureF,Min TemperatureF,Max Dew PointF,MeanDew PointF,Min DewpointF,Max Humidity, Mean Humidity, Min Humidity, Max Sea Level PressureIn, Mean Sea Level PressureIn, Min Sea Level PressureIn, Max VisibilityMiles, Mean VisibilityMiles, Min VisibilityMiles, Max Wind SpeedMPH, Mean Wind SpeedMPH, Max Gust SpeedMPH,PrecipitationIn, CloudCover, Events, WindDirDegrees
2011-8-1,106,93,80,58,53,48,43,26,16,30.00,29.92,29.84,10,10,10,20,11,25,0.00,0,,190
2011-8-2,108,93,79,53,50,44,40,23,12,29.88,29.82,29.75,10,10,10,14,10,31,0.00,0,,189
2011-8-3,107,94,82,69,60,50,62,38,16,29.88,29.81,29.72,10,10,10,17,10,24,0.00,0,,334
2011-8-4,107,92,77,64,57,46,64,36,14,29.87,29.82,29.75,10,10,10,18,9,24,0.00,0,,125
2011-8-5,109,95,82,54,51,47,36,23,13,29.84,29.78,29.71,10,10,10,16,13,22,0.00,0,,189
2011-8-6,107,91,77,67,61,54,68,46,18,29.93,29.83,29.77,10,10,8,37,11,45,0.00,1,Rain-Thunderstorm,357
2011-8-7,102,90,79,64,58,53,60,38,22,29.89,29.80,29.73,10,10,10,24,11,33,0.00,0,Rain,177
2011-8-8,109,94,80,65,57,53,51,31,16,29.80,29.70,29.60,10,10,10,26,17,40,0.00,0,Rain-Thunderstorm,209
2011-8-9,102,86,69,67,62,52,90,52,23,29.92,29.77,29.67,10,9,2,34,13,52,0.14,1,Rain-Thunderstorm,39
2011-8-10,95,83,71,67,65,60,81,60,37,29.86,29.77,29.71,10,10,10,22,13,26,0.00,0,,72
2011-8-11,81,74,68,67,65,63,94,79,56,30.04,29.90,29.79,10,9,3,33,16,43,0.49,3,Rain-Thunderstorm,70
2011-8-12,100,84,69,68,65,56,94,67,23,30.02,29.88,29.72,10,8,2,33,12,47,0.89,2,Rain-Thunderstorm,150
2011-8-13,89,78,68,67,64,60,94,68,41,30.12,30.00,29.89,10,9,1,18,11,16,0.00,2,,83
2011-8-14,95,82,72,68,65,60,87,58,35,30.05,29.98,29.89,10,10,7,15,6,20,0.00,0,,108
2011-8-15,100,87,75,67,63,57,76,49,25,29.91,29.84,29.75,10,10,10,18,9,32,0.00,0,,176
2011-8-16,105,92,78,63,59,52,56,38,18,29.96,29.85,29.78,10,10,10,21,15,28,0.00,1,,183
2011-8-17,100,89,78,66,62,55,66,45,23,30.03,29.96,29.91,10,10,10,15,9,,0.00,1,,113
2011-8-18,104,90,75,63,57,50,62,35,18,29.96,29.88,29.78,10,10,10,17,9,21,0.00,0,,190
2011-8-19,106,92,78,55,52,45,43,27,14,29.83,29.77,29.72,10,10,10,16,13,30,0.00,0,,188
2011-8-20,102,90,79,66,54,47,54,31,15,29.91,29.84,29.78,10,10,10,21,12,24,0.00,0,,194
2011-8-21,102,88,78,68,63,56,71,46,25,30.00,29.93,29.88,10,10,10,16,8,,0.00,1,Rain-Thunderstorm,80
2011-8-22,105,92,80,59,54,50,45,28,17,29.98,29.91,29.83,10,10,10,18,13,31,0.00,0,,193
2011-8-23,105,93,81,56,54,50,42,29,16,29.88,29.82,29.75,10,10,10,17,13,24,0.00,0,,193
2011-8-24,109,93,78,66,57,51,61,37,15,29.98,29.84,29.74,10,9,2,28,13,68,0.00,1,Rain-Thunderstorm,208
2011-8-25,97,84,73,69,65,59,82,56,32,29.99,29.93,29.87,10,10,10,18,11,24,0.00,0,,38
2011-8-26,100,84,68,62,55,43,76,41,15,30.01,29.95,29.88,10,10,10,12,5,,0.00,0,,63
2011-8-27,105,88,71,62,54,40,68,36,12,29.98,29.90,29.83,10,10,10,13,6,,0.00,0,,114
2011-8-28,109,94,81,58,52,44,44,27,12,29.86,29.79,29.68,10,10,8,24,12,31,0.00,0,Rain-Thunderstorm,183
2011-8-29,100,88,77,58,55,50,50,34,21,29.82,29.78,29.72,10,10,10,14,8,,0.00,0,,212
2011-8-30,106,93,82,57,52,44,39,28,14,29.76,29.71,29.64,10,10,10,22,15,28,0.00,0,,175
2011-8-31,102,92,82,51,48,44,32,23,15,29.86,29.80,29.73,10,10,9,28,19,32,0.00,0,,184